Time;durP1;ratioP1;P1;durP2;ratioP2;P2;SDS_P1;SDS_P2;PMS_P1;PMS_P2;Temp;Humidity;BMP_temperature;BMP_pressure;BME280_temperature;BME280_humidity;BME280_pressure;Samples;Min_cycle;Max_cycle;Signal;HPM_P1;HPM_P2
2022/04/20 00:00:27;;;;;;;7.70;7.20;;;;;;;;;;5077120;28;20036;-45
2022/04/20 00:02:52;;;;;;;6.80;6.30;;;;;;;;;;5078959;28;20039;-45
2022/04/20 00:05:18;;;;;;;6.95;6.45;;;;;;;;;;5079246;28;20032;-45
2022/04/20 00:07:43;;;;;;;7.57;7.07;;;;;;;;;;5079673;28;20105;-47
2022/04/20 00:10:09;;;;;;;7.22;6.72;;;;;;;;;;5080568;28;20145;-44
2022/04/20 00:12:34;;;;;;;7.80;7.30;;;;;;;;;;5078517;28;20480;-46
2022/04/20 00:15:00;;;;;;;9.70;9.10;;;;;;;;;;5079877;28;20035;-45
2022/04/20 00:17:25;;;;;;;8.93;8.35;;;;;;;;;;5063294;28;20027;-45
2022/04/20 00:19:51;;;;;;;7.32;6.82;;;;;;;;;;5078058;28;20037;-46
2022/04/20 00:22:16;;;;;;;8.30;7.70;;;;;;;;;;5080779;28;20507;-44
2022/04/20 00:24:41;;;;;;;7.28;6.78;;;;;;;;;;5079300;28;20031;-44
2022/04/20 00:27:07;;;;;;;9.35;8.75;;;;;;;;;;5078453;28;20067;-44
2022/04/20 00:29:32;;;;;;;9.23;8.63;;;;;;;;;;5075942;28;20032;-44
2022/04/20 00:31:57;;;;;;;11.15;10.45;;;;;;;;;;5081823;28;20561;-46
2022/04/20 00:34:23;;;;;;;8.52;7.93;;;;;;;;;;5079116;28;20078;-45
2022/04/20 00:36:52;;;;;;;11.35;10.65;;;;;;;;;;5078390;28;20048;-45
2022/04/20 00:39:17;;;;;;;12.05;11.35;;;;;;;;;;5077525;28;20068;-44
2022/04/20 00:41:43;;;;;;;8.02;7.53;;;;;;;;;;5075562;28;20070;-44
2022/04/20 00:44:09;;;;;;;9.13;8.52;;;;;;;;;;5075902;28;20424;-43
2022/04/20 00:46:35;;;;;;;13.45;12.65;;;;;;;;;;5086120;28;20062;-44
2022/04/20 00:49:01;;;;;;;15.02;14.18;;;;;;;;;;5077001;28;20032;-45
2022/04/20 00:51:29;;;;;;;10.77;10.07;;;;;;;;;;5076202;28;20615;-46
2022/04/20 00:53:58;;;;;;;11.10;10.40;;;;;;;;;;5077393;28;20024;-45
2022/04/20 00:56:24;;;;;;;10.38;9.77;;;;;;;;;;5076534;28;20047;-44
2022/04/20 00:58:51;;;;;;;9.52;8.93;;;;;;;;;;5077022;28;20450;-46
2022/04/20 01:01:16;;;;;;;9.55;8.85;;;;;;;;;;5076844;28;20039;-44
2022/04/20 01:03:43;;;;;;;9.02;8.23;;;;;;;;;;5073336;28;20346;-46
2022/04/20 01:06:08;;;;;;;7.22;6.72;;;;;;;;;;5078507;28;20036;-44
2022/04/20 01:08:34;;;;;;;8.30;7.78;;;;;;;;;;5079389;28;20434;-44
2022/04/20 01:10:59;;;;;;;8.70;8.15;;;;;;;;;;5075433;28;20031;-43
2022/04/20 01:13:25;;;;;;;11.13;10.43;;;;;;;;;;5078051;28;20682;-45
2022/04/20 01:15:50;;;;;;;7.60;7.10;;;;;;;;;;5076531;28;20028;-49
2022/04/20 01:18:16;;;;;;;7.50;7.00;;;;;;;;;;5074021;28;20035;-44
2022/04/20 01:20:42;;;;;;;7.90;7.40;;;;;;;;;;5076901;28;20081;-44
2022/04/20 01:23:10;;;;;;;8.75;6.43;;;;;;;;;;5078350;28;20444;-45
2022/04/20 01:25:36;;;;;;;10.30;9.65;;;;;;;;;;5074172;28;20347;-45
2022/04/20 01:28:02;;;;;;;9.48;8.77;;;;;;;;;;5076576;28;20035;-45
2022/04/20 01:30:28;;;;;;;9.23;8.63;;;;;;;;;;5075838;28;20561;-43
2022/04/20 01:32:56;;;;;;;9.00;8.40;;;;;;;;;;5075118;28;20106;-43
2022/04/20 01:35:22;;;;;;;10.15;9.55;;;;;;;;;;5079320;28;20749;-44
2022/04/20 01:37:52;;;;;;;8.30;7.80;;;;;;;;;;5077019;28;20036;-45
2022/04/20 01:40:18;;;;;;;9.00;8.43;;;;;;;;;;5078978;28;20526;-44
2022/04/20 01:42:44;;;;;;;9.50;8.90;;;;;;;;;;5077620;28;20028;-46
2022/04/20 01:45:10;;;;;;;9.27;8.68;;;;;;;;;;5077095;28;20024;-49
2022/04/20 01:47:35;;;;;;;10.98;10.27;;;;;;;;;;5073537;28;20024;-45
2022/04/20 01:50:00;;;;;;;11.52;10.73;;;;;;;;;;5077039;28;20452;-46
2022/04/20 01:52:26;;;;;;;10.35;9.70;;;;;;;;;;5075622;28;20036;-44
2022/04/20 01:54:51;;;;;;;9.15;8.48;;;;;;;;;;5077016;28;20090;-45
2022/04/20 01:57:17;;;;;;;9.88;9.27;;;;;;;;;;5074789;28;20115;-45
2022/04/20 01:59:42;;;;;;;10.32;9.73;;;;;;;;;;5077190;28;20036;-47
2022/04/20 02:04:51;;;;;;;10.18;9.57;;;;;;;;;;5073186;28;20055;-44
2022/04/20 02:07:16;;;;;;;13.00;12.23;;;;;;;;;;5072164;28;20442;-44
2022/04/20 02:09:42;;;;;;;11.15;10.45;;;;;;;;;;5073982;28;20278;-44
2022/04/20 02:12:08;;;;;;;10.88;10.18;;;;;;;;;;5075438;28;20521;-45
2022/04/20 02:14:33;;;;;;;9.75;9.15;;;;;;;;;;5078131;28;20036;-44
2022/04/20 02:16:59;;;;;;;10.65;9.95;;;;;;;;;;5077643;28;20058;-46
2022/04/20 02:19:24;;;;;;;11.15;10.45;;;;;;;;;;5077294;28;20036;-44
2022/04/20 02:21:50;;;;;;;9.75;9.15;;;;;;;;;;5077261;28;20032;-44
2022/04/20 02:24:15;;;;;;;11.70;11.00;;;;;;;;;;5078619;28;20041;-44
2022/04/20 02:26:41;;;;;;;11.68;10.88;;;;;;;;;;5076785;28;20073;-44
2022/04/20 02:29:06;;;;;;;10.35;9.75;;;;;;;;;;5078181;28;20488;-45
2022/04/20 02:31:31;;;;;;;24.15;10.13;;;;;;;;;;5074971;28;20032;-44
2022/04/20 02:33:57;;;;;;;10.20;9.60;;;;;;;;;;5073054;28;20119;-46
2022/04/20 02:36:22;;;;;;;10.35;9.75;;;;;;;;;;5073910;28;20353;-45
2022/04/20 02:38:49;;;;;;;9.65;9.05;;;;;;;;;;5074969;28;20024;-44
2022/04/20 02:41:14;;;;;;;8.05;7.55;;;;;;;;;;5071783;28;20458;-46
2022/04/20 02:43:39;;;;;;;8.93;8.32;;;;;;;;;;5072557;28;20090;-43
2022/04/20 02:46:06;;;;;;;7.57;7.07;;;;;;;;;;5075658;28;20089;-44
2022/04/20 02:48:31;;;;;;;8.02;7.53;;;;;;;;;;5075513;28;20075;-43
2022/04/20 02:50:57;;;;;;;9.65;9.05;;;;;;;;;;5075655;28;20063;-46
2022/04/20 02:53:22;;;;;;;9.23;8.63;;;;;;;;;;5077091;28;20032;-44
2022/04/20 02:55:47;;;;;;;8.45;7.85;;;;;;;;;;5072745;28;20024;-45
2022/04/20 02:58:13;;;;;;;7.68;7.18;;;;;;;;;;5073646;28;20387;-45
2022/04/20 03:00:39;;;;;;;9.02;8.43;;;;;;;;;;5073568;28;20485;-46
2022/04/20 03:03:05;;;;;;;7.47;6.97;;;;;;;;;;5072920;28;20044;-45
2022/04/20 03:05:30;;;;;;;7.45;6.95;;;;;;;;;;5075678;28;20043;-43
2022/04/20 03:07:55;;;;;;;6.35;5.95;;;;;;;;;;5073593;28;20016;-43
2022/04/20 03:10:22;;;;;;;7.47;6.72;;;;;;;;;;5074546;28;20032;-46
2022/04/20 03:12:49;;;;;;;6.55;6.15;;;;;;;;;;5077675;28;20485;-44
2022/04/20 03:15:15;;;;;;;7.68;7.18;;;;;;;;;;5078450;28;20057;-44
2022/04/20 03:17:41;;;;;;;5.95;5.55;;;;;;;;;;5078523;28;20509;-45
2022/04/20 03:20:07;;;;;;;6.88;6.38;;;;;;;;;;5079108;28;20111;-46
2022/04/20 03:22:32;;;;;;;7.13;6.63;;;;;;;;;;5077821;28;20043;-45
2022/04/20 03:24:58;;;;;;;6.22;5.82;;;;;;;;;;5077722;28;20036;-44
2022/04/20 03:27:23;;;;;;;5.35;4.95;;;;;;;;;;5079327;28;20875;-44
2022/04/20 03:29:49;;;;;;;5.80;5.30;;;;;;;;;;5081365;28;20024;-44
2022/04/20 03:32:15;;;;;;;5.40;5.00;;;;;;;;;;5077729;28;20028;-48
2022/04/20 03:34:41;;;;;;;5.60;5.20;;;;;;;;;;5081412;28;20024;-52
2022/04/20 03:37:08;;;;;;;6.22;5.63;;;;;;;;;;5078144;28;20040;-49
2022/04/20 03:39:34;;;;;;;5.70;5.30;;;;;;;;;;5079742;28;20040;-52
2022/04/20 03:41:59;;;;;;;5.97;5.57;;;;;;;;;;5075799;28;20101;-50
2022/04/20 03:44:26;;;;;;;5.82;5.32;;;;;;;;;;5079184;28;20105;-51
2022/04/20 03:46:52;;;;;;;6.55;6.05;;;;;;;;;;5078796;28;20577;-50
2022/04/20 03:49:18;;;;;;;6.95;6.35;;;;;;;;;;5075717;28;20110;-49
2022/04/20 03:51:45;;;;;;;5.88;5.38;;;;;;;;;;5078602;28;20048;-49
2022/04/20 03:54:11;;;;;;;4.97;4.57;;;;;;;;;;5079644;28;20032;-49
2022/04/20 03:59:20;;;;;;;5.15;4.75;;;;;;;;;;5079667;28;20020;-51
2022/04/20 04:01:45;;;;;;;5.68;5.28;;;;;;;;;;5082933;28;20542;-49
2022/04/20 04:04:11;;;;;;;5.15;4.75;;;;;;;;;;5078617;28;20040;-49
2022/04/20 04:06:37;;;;;;;4.90;4.53;;;;;;;;;;5078524;28;20039;-49
2022/04/20 04:09:02;;;;;;;6.45;5.95;;;;;;;;;;5075934;28;20024;-49
2022/04/20 04:11:27;;;;;;;5.60;5.20;;;;;;;;;;5076499;28;20035;-51
2022/04/20 04:13:53;;;;;;;5.65;5.25;;;;;;;;;;5076453;28;20076;-53
2022/04/20 04:16:18;;;;;;;5.72;5.32;;;;;;;;;;5079382;28;20098;-52
2022/04/20 04:18:43;;;;;;;5.10;4.70;;;;;;;;;;5078760;28;20020;-50
2022/04/20 04:21:09;;;;;;;5.82;5.43;;;;;;;;;;5081371;28;20616;-52
2022/04/20 04:23:34;;;;;;;5.60;5.20;;;;;;;;;;5076845;28;20032;-51
2022/04/20 04:25:59;;;;;;;5.22;4.82;;;;;;;;;;5079989;28;20033;-49
2022/04/20 04:28:25;;;;;;;4.95;4.55;;;;;;;;;;5080504;28;20103;-49
2022/04/20 04:30:51;;;;;;;6.00;5.40;;;;;;;;;;5078448;28;20064;-50
2022/04/20 04:33:16;;;;;;;5.72;5.32;;;;;;;;;;5076225;28;20033;-50
2022/04/20 04:35:41;;;;;;;5.40;5.00;;;;;;;;;;5078584;28;20071;-48
2022/04/20 04:38:07;;;;;;;6.93;6.30;;;;;;;;;;5078078;28;20047;-49
2022/04/20 04:40:32;;;;;;;6.13;5.65;;;;;;;;;;5078487;28;20036;-50
2022/04/20 04:42:58;;;;;;;6.60;6.10;;;;;;;;;;5081146;28;20035;-53
2022/04/20 04:50:51;;;;;;;6.43;5.93;;;;;;;;;;5074648;28;20040;-50
2022/04/20 04:53:17;;;;;;;5.18;4.78;;;;;;;;;;5078929;28;20418;-50
2022/04/20 04:55:43;;;;;;;5.75;5.35;;;;;;;;;;5077481;28;20032;-51
2022/04/20 04:58:08;;;;;;;7.72;7.13;;;;;;;;;;5074903;28;20438;-50
2022/04/20 05:00:34;;;;;;;7.38;6.88;;;;;;;;;;5074246;28;20039;-53
2022/04/20 05:02:59;;;;;;;6.07;5.68;;;;;;;;;;5079673;28;20039;-53
2022/04/20 05:05:24;;;;;;;5.82;5.32;;;;;;;;;;5076403;28;20031;-50
2022/04/20 05:07:54;;;;;;;7.82;7.32;;;;;;;;;;5077454;28;20027;-49
2022/04/20 05:10:21;;;;;;;6.45;6.05;;;;;;;;;;5078309;28;20048;-49
2022/04/20 05:12:47;;;;;;;7.05;6.55;;;;;;;;;;5072657;28;20028;-50
2022/04/20 05:15:12;;;;;;;8.45;7.85;;;;;;;;;;5077087;28;20106;-53
2022/04/20 05:17:38;;;;;;;8.55;8.00;;;;;;;;;;5077549;28;20085;-51
2022/04/20 05:20:04;;;;;;;9.50;8.90;;;;;;;;;;5075903;28;20032;-50
2022/04/20 05:22:29;;;;;;;9.07;8.48;;;;;;;;;;5077372;28;20033;-50
2022/04/20 05:24:54;;;;;;;9.05;8.45;;;;;;;;;;5076637;28;20050;-52
2022/04/20 05:27:20;;;;;;;10.75;10.05;;;;;;;;;;5076408;28;20346;-48
2022/04/20 05:29:45;;;;;;;10.13;9.52;;;;;;;;;;5073811;28;20116;-51
2022/04/20 05:32:10;;;;;;;9.98;9.38;;;;;;;;;;5074121;28;20036;-51
2022/04/20 05:34:36;;;;;;;9.23;8.63;;;;;;;;;;5073325;28;20040;-50
2022/04/20 05:42:29;;;;;;;10.13;9.52;;;;;;;;;;5074503;28;20083;-50
2022/04/20 05:44:54;;;;;;;10.80;10.02;;;;;;;;;;5076461;28;20058;-50
2022/04/20 05:47:20;;;;;;;11.13;10.43;;;;;;;;;;5073634;28;20047;-52
2022/04/20 05:49:45;;;;;;;8.77;8.18;;;;;;;;;;5080677;28;20101;-53
2022/04/20 05:52:11;;;;;;;9.32;8.70;;;;;;;;;;5075996;28;20025;-52
2022/04/20 05:54:36;;;;;;;10.45;9.60;;;;;;;;;;5075863;28;20459;-51
2022/04/20 05:57:02;;;;;;;9.38;8.77;;;;;;;;;;5075107;28;20095;-54
2022/04/20 05:59:27;;;;;;;9.55;8.95;;;;;;;;;;5074872;28;20115;-49
2022/04/20 06:01:53;;;;;;;9.35;8.75;;;;;;;;;;5080953;28;20020;-49
2022/04/20 06:04:18;;;;;;;10.25;9.55;;;;;;;;;;5074695;28;20039;-53
2022/04/20 06:06:44;;;;;;;9.95;9.35;;;;;;;;;;5072604;28;20043;-54
2022/04/20 06:09:09;;;;;;;22.85;9.77;;;;;;;;;;5075652;28;20028;-52
2022/04/20 06:11:35;;;;;;;10.48;9.57;;;;;;;;;;5075679;28;20040;-54
2022/04/20 06:14:00;;;;;;;14.25;13.02;;;;;;;;;;5077362;28;20028;-52
2022/04/20 06:16:25;;;;;;;10.85;9.95;;;;;;;;;;5077744;28;20119;-50
2022/04/20 06:18:51;;;;;;;8.27;7.78;;;;;;;;;;5073785;28;20032;-50
2022/04/20 06:21:17;;;;;;;9.98;9.27;;;;;;;;;;5076541;28;20036;-53
2022/04/20 06:23:42;;;;;;;9.68;9.07;;;;;;;;;;5074959;28;20183;-50
2022/04/20 06:26:08;;;;;;;9.98;9.30;;;;;;;;;;5073711;28;20036;-49
2022/04/20 06:28:33;;;;;;;8.85;8.25;;;;;;;;;;5072525;28;21231;-49
2022/04/20 06:30:59;;;;;;;8.63;8.02;;;;;;;;;;5071669;28;20038;-51
2022/04/20 06:33:24;;;;;;;7.88;7.32;;;;;;;;;;5069793;28;20040;-50
2022/04/20 06:35:51;;;;;;;8.20;7.70;;;;;;;;;;5073829;28;20085;-51
2022/04/20 06:38:17;;;;;;;9.70;9.02;;;;;;;;;;5072729;28;20447;-53
2022/04/20 06:40:43;;;;;;;10.27;9.05;;;;;;;;;;5071911;28;20047;-51
2022/04/20 06:43:08;;;;;;;8.43;7.82;;;;;;;;;;5072306;28;20077;-54
2022/04/20 06:45:34;;;;;;;9.43;8.82;;;;;;;;;;5076709;28;20089;-50
2022/04/20 06:47:59;;;;;;;9.68;9.07;;;;;;;;;;5073542;28;20084;-52
2022/04/20 06:50:26;;;;;;;9.45;8.85;;;;;;;;;;5071026;28;20118;-53
2022/04/20 06:58:39;;;;;;;11.93;11.23;;;;;;;;;;5072276;28;20032;-51
2022/04/20 07:01:06;;;;;;;11.80;11.10;;;;;;;;;;5078135;28;20024;-49
2022/04/20 07:03:32;;;;;;;12.10;11.40;;;;;;;;;;5072892;28;20046;-51
2022/04/20 07:05:58;;;;;;;12.85;12.05;;;;;;;;;;5072456;28;20061;-53
2022/04/20 07:08:24;;;;;;;10.45;9.70;;;;;;;;;;5073727;28;20116;-50
2022/04/20 07:10:50;;;;;;;17.65;16.55;;;;;;;;;;5074675;28;20040;-49
2022/04/20 07:13:16;;;;;;;17.80;16.70;;;;;;;;;;5075003;28;20036;-53
2022/04/20 07:15:42;;;;;;;19.35;18.25;;;;;;;;;;5075734;28;20065;-50
2022/04/20 07:18:07;;;;;;;19.75;18.67;;;;;;;;;;5071356;28;20075;-50
2022/04/20 07:20:33;;;;;;;11.52;10.82;;;;;;;;;;5077996;28;20027;-49
2022/04/20 07:22:59;;;;;;;11.63;10.93;;;;;;;;;;5074925;28;20028;-51
2022/04/20 07:25:25;;;;;;;15.52;14.63;;;;;;;;;;5071499;28;20044;-53
2022/04/20 07:27:51;;;;;;;23.02;21.73;;;;;;;;;;5075290;28;20109;-52
2022/04/20 07:30:17;;;;;;;17.50;15.90;;;;;;;;;;5075862;28;20119;-52
2022/04/20 07:32:43;;;;;;;20.45;19.35;;;;;;;;;;5076153;28;20028;-53
2022/04/20 07:35:09;;;;;;;15.68;14.77;;;;;;;;;;5072736;28;20047;-53
2022/04/20 07:37:34;;;;;;;14.02;13.20;;;;;;;;;;5072881;28;20023;-52
2022/04/20 07:40:00;;;;;;;11.75;11.05;;;;;;;;;;5070856;28;20754;-52
2022/04/20 07:42:25;;;;;;;11.98;11.18;;;;;;;;;;5071968;28;20090;-57
2022/04/20 07:44:54;;;;;;;19.58;18.48;;;;;;;;;;5071942;28;20036;-53
2022/04/20 07:47:22;;;;;;;10.63;9.93;;;;;;;;;;5071245;28;20067;-54
2022/04/20 07:52:40;;;;;;;8.05;7.55;;;;;;;;;;5071699;28;20390;-53
2022/04/20 07:55:10;;;;;;;9.98;9.27;;;;;;;;;;5071309;28;20032;-52
2022/04/20 07:57:36;;;;;;;12.25;11.55;;;;;;;;;;5071056;28;20127;-51
2022/04/20 08:00:06;;;;;;;8.52;7.95;;;;;;;;;;5073625;28;20557;-51
2022/04/20 08:02:32;;;;;;;8.40;7.90;;;;;;;;;;5079223;28;20036;-52
2022/04/20 08:04:57;;;;;;;11.50;10.80;;;;;;;;;;5078849;28;20093;-49
2022/04/20 08:07:23;;;;;;;15.07;14.18;;;;;;;;;;5077851;28;20050;-52
2022/04/20 08:09:48;;;;;;;18.02;16.55;;;;;;;;;;5074169;28;20532;-50
2022/04/20 08:12:13;;;;;;;16.25;15.05;;;;;;;;;;5077862;28;20521;-49
2022/04/20 08:14:39;;;;;;;20.42;19.02;;;;;;;;;;5079290;28;20374;-52
2022/04/20 08:17:04;;;;;;;14.88;14.05;;;;;;;;;;5079068;28;20074;-50
2022/04/20 08:19:30;;;;;;;23.02;21.77;;;;;;;;;;5079327;28;20029;-50
2022/04/20 08:21:55;;;;;;;27.40;25.95;;;;;;;;;;5078990;28;20115;-51
2022/04/20 08:24:21;;;;;;;28.75;27.25;;;;;;;;;;5078453;28;20029;-46
2022/04/20 08:26:46;;;;;;;29.83;28.27;;;;;;;;;;5077451;28;20060;-46
2022/04/20 08:29:12;;;;;;;29.15;27.55;;;;;;;;;;5076493;28;20020;-46
2022/04/20 08:31:37;;;;;;;29.15;27.55;;;;;;;;;;5074570;28;20101;-46
2022/04/20 08:34:04;;;;;;;27.08;25.60;;;;;;;;;;5074430;28;20529;-46
2022/04/20 08:36:29;;;;;;;24.10;22.80;;;;;;;;;;5075303;28;20454;-45
2022/04/20 08:38:54;;;;;;;24.95;23.55;;;;;;;;;;5082588;28;20040;-45
2022/04/20 08:41:20;;;;;;;18.13;17.13;;;;;;;;;;5075674;28;20040;-45
2022/04/20 08:43:45;;;;;;;15.45;14.55;;;;;;;;;;5073684;28;20064;-45
2022/04/20 08:46:11;;;;;;;17.17;16.23;;;;;;;;;;5075547;28;20089;-45
2022/04/20 08:48:37;;;;;;;14.05;13.25;;;;;;;;;;5073669;28;20032;-48
2022/04/20 08:51:05;;;;;;;11.43;10.73;;;;;;;;;;5074201;28;20035;-44
2022/04/20 08:53:30;;;;;;;9.82;9.23;;;;;;;;;;5073856;28;20037;-45
2022/04/20 08:58:45;;;;;;;9.45;8.85;;;;;;;;;;5075971;28;20035;-44
2022/04/20 09:01:13;;;;;;;8.82;8.23;;;;;;;;;;5076074;28;20240;-45
2022/04/20 09:03:39;;;;;;;8.15;7.53;;;;;;;;;;5075045;28;20502;-45
2022/04/20 09:06:06;;;;;;;9.50;7.65;;;;;;;;;;5076795;28;20032;-45
2022/04/20 09:08:33;;;;;;;8.18;7.57;;;;;;;;;;5073121;28;20032;-45
2022/04/20 09:11:00;;;;;;;7.72;7.13;;;;;;;;;;5072901;28;20024;-45
2022/04/20 09:13:38;;;;;;;9.15;8.55;;;;;;;;;;5071431;28;20063;-44
2022/04/20 09:16:07;;;;;;;10.90;10.20;;;;;;;;;;5079761;28;20912;-45
2022/04/20 09:18:33;;;;;;;9.15;8.55;;;;;;;;;;5071670;28;20052;-53
2022/04/20 09:21:09;;;;;;;7.72;7.22;;;;;;;;;;5074173;28;20656;-50
2022/04/20 09:23:36;;;;;;;7.57;7.07;;;;;;;;;;5069235;28;20149;-50
2022/04/20 09:26:12;;;;;;;9.77;9.18;;;;;;;;;;5071598;28;20525;-51
2022/04/20 09:28:42;;;;;;;11.63;10.93;;;;;;;;;;5073878;28;20028;-51
2022/04/20 09:31:07;;;;;;;8.13;7.53;;;;;;;;;;5074130;28;20039;-49
2022/04/20 09:33:50;;;;;;;9.43;8.82;;;;;;;;;;5074261;28;20051;-53
2022/04/20 09:36:49;;;;;;;8.77;8.18;;;;;;;;;;5076186;28;20028;-52
2022/04/20 09:39:15;;;;;;;10.73;9.82;;;;;;;;;;5078154;28;20093;-54
2022/04/20 09:42:01;;;;;;;11.98;11.18;;;;;;;;;;5084442;28;20017;-50
2022/04/20 09:44:32;;;;;;;16.15;15.25;;;;;;;;;;5074289;28;20036;-50
2022/04/20 09:50:01;;;;;;;15.00;14.15;;;;;;;;;;5075918;28;20036;-51
2022/04/20 09:52:41;;;;;;;18.05;17.05;;;;;;;;;;5076878;28;20051;-55
2022/04/20 09:55:11;;;;;;;18.10;17.10;;;;;;;;;;5072910;28;20107;-54
2022/04/20 09:57:39;;;;;;;14.25;13.20;;;;;;;;;;5075262;28;20387;-53
2022/04/20 10:00:11;;;;;;;16.45;15.55;;;;;;;;;;5073499;28;20085;-50
2022/04/20 10:02:38;;;;;;;13.85;13.05;;;;;;;;;;5070242;28;20036;-52
2022/04/20 10:05:03;;;;;;;13.60;12.80;;;;;;;;;;5053071;28;20033;-53
2022/04/20 10:07:29;;;;;;;16.02;15.05;;;;;;;;;;5077804;28;20087;-50
2022/04/20 10:09:54;;;;;;;16.30;15.38;;;;;;;;;;5077522;28;20013;-50
2022/04/20 10:12:20;;;;;;;15.10;14.20;;;;;;;;;;5079150;28;20103;-52
2022/04/20 10:17:43;;;;;;;14.63;13.80;;;;;;;;;;5083312;28;20674;-52
2022/04/20 10:20:09;;;;;;;12.63;11.82;;;;;;;;;;5077574;28;20081;-53
2022/04/20 10:22:37;;;;;;;14.18;13.38;;;;;;;;;;5078942;28;20037;-51
2022/04/20 10:25:05;;;;;;;13.27;12.48;;;;;;;;;;5073574;28;20097;-53
2022/04/20 10:28:09;;;;;;;10.80;10.10;;;;;;;;;;5074732;28;20050;-52
2022/04/20 10:30:38;;;;;;;10.68;9.98;;;;;;;;;;5073021;28;20041;-49
2022/04/20 10:33:19;;;;;;;13.38;12.57;;;;;;;;;;5075072;28;20032;-52
2022/04/20 10:35:59;;;;;;;13.00;12.23;;;;;;;;;;5076437;28;20443;-54
2022/04/20 10:38:29;;;;;;;13.57;12.77;;;;;;;;;;5075922;28;20048;-50
2022/04/20 10:40:58;;;;;;;11.18;10.48;;;;;;;;;;5076974;28;20117;-49
2022/04/20 10:43:24;;;;;;;10.68;9.98;;;;;;;;;;5076212;28;20093;-52
2022/04/20 10:46:11;;;;;;;9.95;9.13;;;;;;;;;;5074248;28;20024;-50
2022/04/20 10:48:50;;;;;;;8.77;8.20;;;;;;;;;;5072277;28;20119;-50
2022/04/20 10:51:24;;;;;;;8.82;8.23;;;;;;;;;;5072458;28;20032;-55
2022/04/20 10:53:51;;;;;;;8.07;7.57;;;;;;;;;;5073383;28;20044;-53
2022/04/20 10:56:17;;;;;;;8.52;8.00;;;;;;;;;;5073575;28;20098;-54
2022/04/20 10:59:04;;;;;;;9.00;8.40;;;;;;;;;;5074694;28;20101;-52
2022/04/20 11:01:30;;;;;;;7.63;7.13;;;;;;;;;;5076324;28;20028;-50
2022/04/20 11:03:58;;;;;;;9.13;8.52;;;;;;;;;;5077260;28;20952;-53
2022/04/20 11:06:28;;;;;;;7.88;7.28;;;;;;;;;;5077127;28;20031;-51
2022/04/20 11:08:53;;;;;;;8.02;7.43;;;;;;;;;;5076817;28;20027;-52
2022/04/20 11:19:54;;;;;;;9.75;9.10;;;;;;;;;;5075789;28;20040;-52
2022/04/20 11:22:20;;;;;;;9.43;8.82;;;;;;;;;;5073978;28;20032;-50
2022/04/20 11:24:45;;;;;;;9.95;9.35;;;;;;;;;;5072878;28;20028;-53
2022/04/20 11:27:11;;;;;;;8.32;7.82;;;;;;;;;;5075140;28;20036;-56
2022/04/20 11:29:37;;;;;;;8.77;8.18;;;;;;;;;;5072813;28;20063;-49
2022/04/20 11:32:07;;;;;;;9.23;8.63;;;;;;;;;;5077324;28;20047;-50
2022/04/20 11:34:34;;;;;;;9.45;8.85;;;;;;;;;;5076836;28;20050;-53
2022/04/20 11:37:02;;;;;;;8.23;7.72;;;;;;;;;;5078090;28;20036;-53
2022/04/20 11:39:29;;;;;;;9.63;9.02;;;;;;;;;;5078594;28;20056;-53
2022/04/20 11:41:57;;;;;;;9.52;8.93;;;;;;;;;;5078845;28;20030;-51
2022/04/20 11:44:36;;;;;;;9.40;8.80;;;;;;;;;;5079318;28;20036;-53
2022/04/20 11:47:07;;;;;;;10.77;10.13;;;;;;;;;;5086394;28;20107;-54
2022/04/20 11:49:41;;;;;;;11.50;10.77;;;;;;;;;;5078967;28;20032;-50
2022/04/20 11:52:09;;;;;;;20.90;19.80;;;;;;;;;;5075658;28;20673;-55
2022/04/20 11:54:36;;;;;;;14.10;13.27;;;;;;;;;;5078589;28;20028;-51
2022/04/20 11:57:02;;;;;;;13.35;12.55;;;;;;;;;;5076419;28;20028;-56
2022/04/20 11:59:29;;;;;;;12.23;11.52;;;;;;;;;;5078729;28;20032;-54
2022/04/20 12:01:55;;;;;;;13.05;12.30;;;;;;;;;;5075773;28;20372;-55
2022/04/20 12:04:22;;;;;;;12.82;12.10;;;;;;;;;;5078459;28;20081;-53
2022/04/20 12:06:53;;;;;;;13.38;12.38;;;;;;;;;;5077831;28;20024;-52
2022/04/20 12:09:24;;;;;;;13.73;12.93;;;;;;;;;;5079545;28;20067;-54
2022/04/20 12:11:54;;;;;;;10.82;10.13;;;;;;;;;;5077425;28;20036;-53
2022/04/20 12:14:21;;;;;;;10.77;10.13;;;;;;;;;;5076855;28;20040;-54
2022/04/20 12:16:47;;;;;;;8.93;8.32;;;;;;;;;;5075059;28;20103;-54
2022/04/20 12:19:13;;;;;;;9.65;9.05;;;;;;;;;;5078976;28;20032;-54
2022/04/20 12:21:43;;;;;;;8.30;7.78;;;;;;;;;;5078974;28;20072;-51
2022/04/20 12:24:10;;;;;;;8.65;8.13;;;;;;;;;;5077431;28;20032;-52
2022/04/20 12:26:43;;;;;;;8.23;7.70;;;;;;;;;;5084921;28;20043;-53
2022/04/20 12:29:09;;;;;;;10.13;9.52;;;;;;;;;;5077739;28;20088;-54
2022/04/20 12:31:38;;;;;;;7.95;7.45;;;;;;;;;;5075621;28;20097;-55
2022/04/20 12:34:06;;;;;;;8.60;8.05;;;;;;;;;;5078814;28;20032;-52
2022/04/20 12:36:50;;;;;;;9.65;9.05;;;;;;;;;;5075840;28;20052;-55
2022/04/20 12:39:44;;;;;;;8.50;7.93;;;;;;;;;;5080010;28;20100;-56
2022/04/20 12:42:14;;;;;;;8.60;8.00;;;;;;;;;;5075055;28;20389;-54
2022/04/20 12:44:54;;;;;;;8.57;8.00;;;;;;;;;;5076856;28;20126;-51
2022/04/20 12:47:20;;;;;;;8.82;8.23;;;;;;;;;;5075431;28;20035;-55
2022/04/20 12:50:00;;;;;;;9.63;8.95;;;;;;;;;;5074380;28;20457;-53
2022/04/20 12:52:28;;;;;;;8.45;7.85;;;;;;;;;;5077829;28;20378;-57
2022/04/20 12:54:55;;;;;;;9.98;9.27;;;;;;;;;;5076275;28;20419;-57
2022/04/20 13:03:02;;;;;;;10.73;10.07;;;;;;;;;;5079363;28;20028;-55
2022/04/20 13:05:28;;;;;;;10.60;9.95;;;;;;;;;;5075276;28;20028;-55
2022/04/20 13:07:53;;;;;;;13.88;12.88;;;;;;;;;;5076724;28;20027;-56
2022/04/20 13:10:19;;;;;;;13.73;12.73;;;;;;;;;;5076790;28;20120;-56
2022/04/20 13:12:53;;;;;;;13.43;12.63;;;;;;;;;;5075337;28;20028;-57
2022/04/20 13:15:20;;;;;;;11.68;10.98;;;;;;;;;;5075650;28;20416;-56
2022/04/20 13:17:45;;;;;;;13.40;12.60;;;;;;;;;;5075527;28;20036;-56
2022/04/20 13:20:12;;;;;;;13.02;12.25;;;;;;;;;;5075661;28;20036;-56
2022/04/20 13:22:37;;;;;;;10.95;10.23;;;;;;;;;;5074210;28;20362;-56
2022/04/20 13:27:56;;;;;;;13.60;12.80;;;;;;;;;;5075168;28;20326;-54
2022/04/20 13:30:35;;;;;;;13.82;13.02;;;;;;;;;;5077836;28;20141;-56
2022/04/20 13:33:01;;;;;;;18.00;16.90;;;;;;;;;;5075721;28;20035;-55
2022/04/20 13:35:26;;;;;;;20.00;18.88;;;;;;;;;;5076216;28;20557;-55
2022/04/20 13:37:52;;;;;;;17.45;16.48;;;;;;;;;;5071105;28;20038;-56
2022/04/20 13:40:18;;;;;;;25.67;24.27;;;;;;;;;;5074108;28;20041;-55
2022/04/20 13:42:43;;;;;;;21.25;20.10;;;;;;;;;;5078544;28;20016;-56
2022/04/20 13:45:09;;;;;;;20.13;19.00;;;;;;;;;;5076530;28;20038;-55
2022/04/20 13:47:34;;;;;;;21.30;20.10;;;;;;;;;;5075448;28;20053;-55
2022/04/20 13:50:01;;;;;;;19.65;18.52;;;;;;;;;;5075055;28;20028;-55
2022/04/20 13:52:27;;;;;;;18.17;17.15;;;;;;;;;;5079259;28;20081;-55
2022/04/20 13:54:53;;;;;;;18.20;17.20;;;;;;;;;;5072735;28;20036;-54
2022/04/20 13:57:22;;;;;;;17.80;16.80;;;;;;;;;;5074017;28;20636;-55
2022/04/20 13:59:48;;;;;;;17.48;16.48;;;;;;;;;;5075896;28;20036;-56
2022/04/20 14:02:13;;;;;;;16.13;15.23;;;;;;;;;;5076383;28;20837;-55
2022/04/20 14:04:39;;;;;;;16.67;15.75;;;;;;;;;;5075110;28;20417;-55
2022/04/20 14:07:05;;;;;;;13.70;12.90;;;;;;;;;;5076350;28;20096;-51
2022/04/20 14:09:30;;;;;;;15.40;14.52;;;;;;;;;;5081057;28;20438;-55
2022/04/20 14:11:57;;;;;;;16.30;15.38;;;;;;;;;;5076319;28;20032;-50
2022/04/20 14:14:22;;;;;;;12.40;11.68;;;;;;;;;;5083933;28;20603;-51
2022/04/20 14:16:48;;;;;;;17.85;16.77;;;;;;;;;;5073612;28;20111;-53
2022/04/20 14:19:14;;;;;;;16.10;15.20;;;;;;;;;;5061162;28;20040;-55
2022/04/20 14:21:40;;;;;;;16.58;15.65;;;;;;;;;;5078535;28;20039;-53
2022/04/20 14:24:06;;;;;;;19.67;18.48;;;;;;;;;;5076298;28;20131;-56
2022/04/20 14:32:17;;;;;;;23.48;22.23;;;;;;;;;;5073912;28;20429;-51
2022/04/20 14:34:44;;;;;;;18.27;17.25;;;;;;;;;;5074703;28;20035;-55
2022/04/20 14:37:10;;;;;;;17.77;16.77;;;;;;;;;;5078547;28;20096;-54
2022/04/20 14:39:37;;;;;;;25.75;24.40;;;;;;;;;;5074675;28;20504;-55
2022/04/20 14:42:03;;;;;;;24.00;22.73;;;;;;;;;;5075376;28;20075;-54
2022/04/20 14:44:31;;;;;;;22.77;21.33;;;;;;;;;;5073941;28;20457;-55
2022/04/20 14:46:57;;;;;;;23.48;22.17;;;;;;;;;;5075543;28;20529;-53
2022/04/20 14:49:23;;;;;;;22.58;21.38;;;;;;;;;;5076708;28;20548;-53
2022/04/20 14:51:48;;;;;;;23.85;22.58;;;;;;;;;;5079052;28;20493;-54
2022/04/20 14:54:14;;;;;;;19.25;18.17;;;;;;;;;;5074119;28;20081;-55
2022/04/20 14:56:40;;;;;;;17.50;16.50;;;;;;;;;;5072504;28;20036;-51
2022/04/20 14:59:06;;;;;;;19.50;18.45;;;;;;;;;;5076456;28;20021;-54
2022/04/20 15:01:31;;;;;;;25.70;24.33;;;;;;;;;;5078242;28;20059;-53
2022/04/20 15:04:00;;;;;;;16.60;15.70;;;;;;;;;;5076200;28;20051;-55
2022/04/20 15:06:26;;;;;;;25.48;24.08;;;;;;;;;;5075055;28;20040;-53
2022/04/20 15:08:52;;;;;;;31.20;29.48;;;;;;;;;;5077913;28;20037;-54
2022/04/20 15:11:18;;;;;;;40.17;38.10;;;;;;;;;;5078247;28;20032;-55
2022/04/20 15:13:45;;;;;;;29.75;28.20;;;;;;;;;;5077440;28;20088;-52
2022/04/20 15:16:11;;;;;;;32.58;30.88;;;;;;;;;;5077595;28;20059;-53
2022/04/20 15:18:38;;;;;;;33.55;31.83;;;;;;;;;;5075603;28;20524;-54
2022/04/20 15:21:04;;;;;;;30.75;29.10;;;;;;;;;;5077999;28;20031;-53
2022/04/20 15:23:29;;;;;;;32.08;30.33;;;;;;;;;;5077921;28;20460;-55
2022/04/20 15:25:55;;;;;;;26.23;24.77;;;;;;;;;;5079733;28;20028;-54